createdAt,value
2017-06-09T00:00:39.647Z,77.70
2017-06-09T00:03:07.106Z,79.40
2017-06-09T00:05:34.561Z,80.00
2017-06-09T00:08:02.011Z,82.90
2017-06-09T00:10:29.471Z,81.60
2017-06-09T00:12:57.031Z,80.50
2017-06-09T00:15:24.587Z,80.80
2017-06-09T00:17:52.154Z,83.80
2017-06-09T00:20:19.707Z,84.20
2017-06-09T00:22:47.172Z,84.80
2017-06-09T00:25:15.401Z,85.50
2017-06-09T00:27:42.867Z,85.50
2017-06-09T00:30:10.349Z,86.20
2017-06-09T00:32:37.913Z,85.60
2017-06-09T00:35:05.464Z,85.10
2017-06-09T00:37:32.934Z,83.70
2017-06-09T00:40:01.166Z,81.00
2017-06-09T00:42:28.623Z,80.50
2017-06-09T00:44:56.084Z,77.60
2017-06-09T00:47:23.502Z,76.60
2017-06-09T00:49:50.998Z,76.10
2017-06-09T00:52:18.459Z,77.80
2017-06-09T00:54:45.922Z,76.90
2017-06-09T00:57:13.384Z,76.40
2017-06-09T00:59:40.838Z,79.90
2017-06-09T01:02:09.019Z,80.80
2017-06-09T01:04:36.579Z,79.10
2017-06-09T01:07:04.046Z,79.30
2017-06-09T01:09:31.496Z,80.70
2017-06-09T01:11:59.055Z,78.40
2017-06-09T01:14:26.511Z,81.30
2017-06-09T01:16:53.978Z,84.40
2017-06-09T01:19:22.239Z,85.70
2017-06-09T01:21:49.699Z,85.10
2017-06-09T01:24:17.163Z,86.20
2017-06-09T01:26:44.717Z,84.60
2017-06-09T01:29:12.987Z,81.10
2017-06-09T01:31:40.454Z,81.00
2017-06-09T01:34:08.715Z,78.30
2017-06-09T01:36:36.276Z,77.50
2017-06-09T01:39:03.740Z,75.30
2017-06-09T01:41:31.284Z,74.80
2017-06-09T01:43:58.743Z,73.20
2017-06-09T01:46:26.194Z,72.80
2017-06-09T01:48:53.656Z,73.30
2017-06-09T01:51:21.118Z,74.00
2017-06-09T01:53:48.582Z,74.00
2017-06-09T01:56:16.039Z,73.70
2017-06-09T01:58:44.268Z,73.90
2017-06-09T02:01:11.723Z,73.80
2017-06-09T02:03:39.190Z,73.70
2017-06-09T02:06:06.655Z,73.70
2017-06-09T02:08:34.120Z,74.00
2017-06-09T02:11:01.575Z,74.30
2017-06-09T02:13:29.143Z,77.80
2017-06-09T02:15:56.650Z,76.00
2017-06-09T02:18:24.114Z,74.80
2017-06-09T02:20:51.615Z,74.70
2017-06-09T02:23:19.107Z,73.30
2017-06-09T02:25:46.635Z,72.90
2017-06-09T02:28:14.179Z,72.40
2017-06-09T02:30:41.747Z,72.40
2017-06-09T02:33:09.289Z,71.50
2017-06-09T02:35:37.376Z,73.80
2017-06-09T02:38:04.941Z,72.20
2017-06-09T02:40:32.486Z,72.00
2017-06-09T02:42:59.949Z,71.30
2017-06-09T02:45:27.506Z,79.20
2017-06-09T02:47:54.979Z,80.00
2017-06-09T02:50:23.211Z,84.50
2017-06-09T02:52:50.666Z,84.50
2017-06-09T02:55:18.156Z,80.00
2017-06-09T02:57:45.607Z,81.30
2017-06-09T03:00:13.074Z,81.80
2017-06-09T03:02:41.303Z,83.00
2017-06-09T03:05:08.895Z,82.90
2017-06-09T03:07:36.357Z,84.70
2017-06-09T03:10:03.917Z,85.70
2017-06-09T03:12:31.380Z,86.00
2017-06-09T03:14:58.906Z,86.20
2017-06-09T03:17:26.388Z,86.50
2017-06-09T03:19:53.847Z,84.10
2017-06-09T03:22:21.403Z,83.60
2017-06-09T03:24:48.859Z,85.00
2017-06-09T03:27:16.415Z,86.00
2017-06-09T03:29:43.976Z,87.60
2017-06-09T03:32:17.159Z,88.30
2017-06-09T03:34:44.574Z,89.10
2017-06-09T03:37:12.079Z,88.40
2017-06-09T03:39:39.543Z,88.40
2017-06-09T03:42:07.811Z,89.50
2017-06-09T03:44:35.368Z,89.30
2017-06-09T03:47:02.835Z,89.40
2017-06-09T03:49:30.292Z,86.10
2017-06-09T03:51:57.747Z,83.70
2017-06-09T03:54:25.199Z,80.80
2017-06-09T03:56:52.659Z,79.70
2017-06-09T03:59:20.130Z,78.90
2017-06-09T04:01:48.368Z,77.40
2017-06-09T04:04:15.814Z,77.40
2017-06-09T04:06:43.287Z,77.20
2017-06-09T04:09:10.752Z,77.20
2017-06-09T04:11:38.211Z,75.50
2017-06-09T04:14:05.763Z,74.50
2017-06-09T04:16:33.218Z,76.00
2017-06-09T04:19:00.691Z,73.40
2017-06-09T04:21:28.239Z,72.50
2017-06-09T04:23:55.714Z,70.80
2017-06-09T04:26:23.943Z,59.80
2017-06-09T04:28:51.530Z,59.80
2017-06-09T07:32:37.193Z,40.70
2017-06-09T07:35:05.436Z,41.70
2017-06-09T07:37:33.838Z,41.60
2017-06-09T07:40:02.088Z,41.90
2017-06-09T07:42:29.539Z,41.90
2017-06-09T07:44:56.990Z,41.70
2017-06-09T07:47:24.443Z,41.70
2017-06-09T07:49:51.917Z,40.90
2017-06-09T07:52:19.374Z,41.20
2017-06-09T07:54:46.834Z,42.30
2017-06-09T07:57:14.378Z,42.50
2017-06-09T07:59:41.830Z,42.10
2017-06-09T08:02:09.300Z,43.10
2017-06-09T08:04:36.752Z,41.40
2017-06-09T08:07:04.314Z,41.70
2017-06-09T08:09:31.770Z,40.80
2017-06-09T08:11:59.231Z,41.00
2017-06-09T08:14:26.690Z,41.00
2017-06-09T08:16:54.145Z,43.30
2017-06-09T08:19:21.703Z,41.60
2017-06-09T08:21:49.147Z,42.20
2017-06-09T08:24:16.594Z,42.10
2017-06-09T08:26:44.052Z,43.50
2017-06-09T08:29:11.524Z,44.10
2017-06-09T08:31:38.986Z,42.00
2017-06-09T08:34:06.472Z,43.90
2017-06-09T08:36:33.991Z,42.20
2017-06-09T08:39:01.452Z,42.30
2017-06-09T08:41:28.898Z,41.60
2017-06-09T08:43:56.463Z,39.90
2017-06-09T08:46:24.329Z,42.30
2017-06-09T08:48:51.787Z,41.90
2017-06-09T08:51:19.246Z,41.20
2017-06-09T08:53:46.690Z,42.00
2017-06-09T08:56:14.139Z,39.20
2017-06-09T08:58:41.598Z,41.80
2017-06-09T09:01:09.171Z,39.50
2017-06-09T09:03:36.622Z,42.20
2017-06-09T09:06:04.186Z,39.80
2017-06-09T09:08:31.638Z,38.80
2017-06-09T09:10:59.211Z,39.70
2017-06-09T09:13:26.671Z,38.60
2017-06-09T09:15:55.034Z,41.00
2017-06-09T09:18:22.590Z,41.00
2017-06-09T09:20:50.051Z,42.50
2017-06-09T09:23:17.606Z,41.70
2017-06-09T09:25:45.071Z,41.50
2017-06-09T09:28:12.616Z,42.20
2017-06-09T09:30:40.075Z,43.20
2017-06-09T09:33:07.525Z,41.80
2017-06-09T09:35:34.975Z,43.20
2017-06-09T09:38:02.447Z,43.60
2017-06-09T09:40:29.907Z,44.00
2017-06-09T09:42:57.463Z,44.80
2017-06-09T09:45:24.918Z,44.00
2017-06-09T09:47:52.376Z,44.50
2017-06-09T09:50:19.830Z,43.20
2017-06-09T09:52:47.386Z,44.20
2017-06-09T09:55:14.952Z,42.90
2017-06-09T09:57:42.417Z,44.40
2017-06-09T10:00:09.871Z,45.40
2017-06-09T10:02:37.420Z,44.70
2017-06-09T10:05:04.872Z,45.20
2017-06-09T10:07:32.323Z,46.50
2017-06-09T10:09:59.787Z,47.20
2017-06-09T10:12:27.243Z,47.40
2017-06-09T10:14:54.726Z,48.30
2017-06-09T10:17:22.946Z,48.30
2017-06-09T10:19:50.409Z,48.30
2017-06-09T10:22:17.859Z,48.50
2017-06-09T10:24:45.342Z,49.20
2017-06-09T10:27:12.800Z,49.80
2017-06-09T10:29:40.254Z,49.30
2017-06-09T10:32:07.714Z,50.90
2017-06-09T10:34:35.162Z,50.30
2017-06-09T10:37:02.726Z,50.70
2017-06-09T10:39:30.183Z,51.00
2017-06-09T10:41:57.637Z,51.20
2017-06-09T10:44:25.078Z,52.50
2017-06-09T10:46:52.531Z,53.40
2017-06-09T10:49:20.007Z,53.70
2017-06-09T10:51:47.569Z,54.40
2017-06-09T10:54:15.027Z,56.00
2017-06-09T10:56:43.114Z,56.60
2017-06-09T10:59:11.370Z,56.10
2017-06-09T11:01:38.830Z,56.00
2017-06-09T11:04:06.378Z,56.30
2017-06-09T11:06:33.938Z,55.40
2017-06-09T11:09:01.386Z,56.00
2017-06-09T11:11:28.840Z,55.30
2017-06-09T11:13:56.311Z,54.70
2017-06-09T11:16:23.758Z,55.20
2017-06-09T11:18:51.232Z,55.30
2017-06-09T11:21:18.679Z,55.40
2017-06-09T11:23:46.138Z,56.00
2017-06-09T11:26:13.593Z,54.30
2017-06-09T11:28:41.050Z,55.10
2017-06-09T11:31:08.507Z,54.80
2017-06-09T11:33:35.959Z,55.60
2017-06-09T11:36:03.419Z,55.90
2017-06-09T11:38:30.870Z,56.20
2017-06-09T11:40:58.428Z,56.80
2017-06-09T11:43:25.892Z,56.90
2017-06-09T11:45:53.346Z,56.20
2017-06-09T11:48:20.799Z,56.00
2017-06-09T11:50:48.258Z,56.80
2017-06-09T11:53:15.715Z,56.70
2017-06-09T11:55:43.174Z,57.50
2017-06-09T11:58:10.626Z,56.90
2017-06-09T12:00:38.086Z,57.10
2017-06-09T12:03:05.551Z,57.90
2017-06-09T12:05:33.014Z,58.10
2017-06-09T12:08:01.944Z,58.00
2017-06-09T12:10:29.443Z,58.00
2017-06-09T12:12:56.889Z,58.00
2017-06-09T12:15:24.349Z,57.90
2017-06-09T12:17:51.802Z,58.20
2017-06-09T12:20:19.250Z,58.70
2017-06-09T12:22:46.707Z,58.90
2017-06-09T12:25:14.184Z,58.50
2017-06-09T12:27:41.638Z,59.20
2017-06-09T12:30:09.199Z,59.40
2017-06-09T12:32:36.658Z,59.00
2017-06-09T12:35:04.203Z,58.90
2017-06-09T12:37:31.755Z,59.00
2017-06-09T12:39:59.211Z,59.50
2017-06-09T12:42:26.786Z,58.40
2017-06-09T12:44:54.247Z,57.70
2017-06-09T12:47:21.715Z,58.00
2017-06-09T12:49:49.252Z,58.40
2017-06-09T12:52:16.707Z,58.90
2017-06-09T12:54:44.170Z,59.10
2017-06-09T12:57:11.626Z,59.50
2017-06-09T12:59:39.078Z,60.10
2017-06-09T13:02:06.539Z,59.70
2017-06-09T13:04:33.999Z,59.60
2017-06-09T13:07:01.554Z,59.50
2017-06-09T13:09:29.010Z,61.10
2017-06-09T13:11:56.468Z,60.20
2017-06-09T13:14:23.926Z,61.60
2017-06-09T13:16:51.382Z,61.10
2017-06-09T13:19:18.842Z,60.00
2017-06-09T13:21:46.290Z,59.50
2017-06-09T13:24:13.851Z,60.40
2017-06-09T13:26:41.298Z,63.20
2017-06-09T13:29:08.754Z,59.80
2017-06-09T13:31:36.209Z,58.20
2017-06-09T13:34:03.658Z,60.30
2017-06-09T13:36:31.119Z,55.70
2017-06-09T13:38:58.590Z,57.50
2017-06-09T13:41:26.056Z,56.90
2017-06-09T13:43:53.595Z,56.70
2017-06-09T13:46:21.060Z,55.20
2017-06-09T13:48:48.516Z,57.10
2017-06-09T13:51:15.998Z,57.40
2017-06-09T13:53:44.256Z,57.60
2017-06-09T13:56:11.705Z,57.70
2017-06-09T13:58:39.159Z,55.20
2017-06-09T14:01:06.615Z,54.20
2017-06-09T14:03:34.066Z,53.40
2017-06-09T14:06:01.516Z,54.00
2017-06-09T14:08:28.966Z,56.70
2017-06-09T14:10:56.437Z,53.50
2017-06-09T14:13:23.999Z,53.40
2017-06-09T14:15:51.455Z,52.70
2017-06-09T14:18:18.907Z,53.40
2017-06-09T14:20:46.472Z,53.60
2017-06-09T14:23:13.936Z,54.70
2017-06-09T14:25:42.198Z,55.50
2017-06-09T14:28:09.660Z,56.20
2017-06-09T14:30:37.213Z,54.50
2017-06-09T14:33:04.776Z,53.60
2017-06-09T14:35:32.239Z,54.20
2017-06-09T14:37:59.679Z,53.70
2017-06-09T14:40:27.131Z,53.50
2017-06-09T14:42:54.694Z,53.20
2017-06-09T14:45:22.153Z,54.60
2017-06-09T14:47:49.604Z,53.70
2017-06-09T14:50:17.058Z,52.10
2017-06-09T14:52:44.517Z,52.80
2017-06-09T14:55:11.966Z,52.40
2017-06-09T14:57:39.430Z,52.30
2017-06-09T15:00:06.895Z,53.50
2017-06-09T15:02:34.350Z,53.10
2017-06-09T15:05:01.821Z,53.10
2017-06-09T15:07:29.275Z,54.30
2017-06-09T15:09:57.504Z,53.20
2017-06-09T15:12:24.964Z,53.50
2017-06-09T15:14:52.426Z,54.30
2017-06-09T15:17:19.882Z,54.60
2017-06-09T15:19:47.368Z,54.50
2017-06-09T15:22:14.824Z,55.50
2017-06-09T15:24:42.272Z,54.40
2017-06-09T15:27:09.724Z,54.80
2017-06-09T15:29:37.290Z,56.20
2017-06-09T15:32:04.746Z,55.40
2017-06-09T15:34:32.201Z,55.00
2017-06-09T15:36:59.658Z,55.50
2017-06-09T15:39:27.214Z,55.90
2017-06-09T15:41:54.679Z,57.30
2017-06-09T15:44:22.133Z,58.10
2017-06-09T15:46:49.587Z,58.20
2017-06-09T15:49:17.055Z,59.20
2017-06-09T15:51:44.503Z,58.90
2017-06-09T15:54:12.058Z,58.60
2017-06-09T15:56:39.516Z,59.20
2017-06-09T15:59:06.975Z,59.50
2017-06-09T16:01:34.432Z,60.30
2017-06-09T16:04:01.888Z,59.40
2017-06-09T16:06:29.347Z,60.00
2017-06-09T16:08:56.790Z,61.60
2017-06-09T16:11:24.242Z,59.90
2017-06-09T16:13:51.816Z,58.70
2017-06-09T16:16:19.267Z,59.50
2017-06-09T16:18:46.727Z,60.90
2017-06-09T16:21:14.179Z,60.50
2017-06-09T16:23:41.635Z,58.90
2017-06-09T16:26:09.088Z,60.70
2017-06-09T16:28:36.534Z,60.00
2017-06-09T16:31:03.986Z,61.30
2017-06-09T16:33:31.460Z,61.30
2017-06-09T16:35:58.910Z,62.30
2017-06-09T16:38:26.372Z,61.30
2017-06-09T16:40:53.931Z,63.40
2017-06-09T16:43:21.390Z,64.20
2017-06-09T16:45:48.843Z,65.40
2017-06-09T16:48:16.290Z,64.60
2017-06-09T16:50:43.863Z,65.60
2017-06-09T16:53:11.313Z,63.70
2017-06-09T16:55:38.771Z,63.50
2017-06-09T16:58:06.226Z,65.50
2017-06-09T17:00:33.687Z,66.10
2017-06-09T17:03:01.138Z,63.30
2017-06-09T17:05:28.599Z,62.60
2017-06-09T17:07:56.060Z,63.60
2017-06-09T17:10:23.611Z,62.30
2017-06-09T17:12:51.075Z,62.30
2017-06-09T17:15:18.632Z,63.10
2017-06-09T17:17:46.099Z,64.10
2017-06-09T17:20:14.319Z,64.50
2017-06-09T17:22:41.775Z,64.50
2017-06-09T17:25:09.270Z,64.60
2017-06-09T17:27:36.727Z,65.70
2017-06-09T17:30:04.184Z,65.60
2017-06-09T17:32:31.643Z,64.70
2017-06-09T17:34:59.106Z,66.20
2017-06-09T17:37:26.655Z,67.30
2017-06-09T17:39:54.110Z,67.60
2017-06-09T17:42:21.571Z,67.60
2017-06-09T17:44:49.026Z,67.50
2017-06-09T17:47:16.583Z,67.20
2017-06-09T17:49:44.140Z,67.20
2017-06-09T17:52:11.592Z,67.60
2017-06-09T17:54:39.146Z,67.40
2017-06-09T17:57:06.604Z,67.90
2017-06-09T17:59:34.172Z,68.20
2017-06-09T18:02:01.633Z,69.40
2017-06-09T18:04:29.096Z,70.50
2017-06-09T18:06:57.369Z,70.40
2017-06-09T18:09:24.818Z,71.00
2017-06-09T18:11:52.275Z,70.10
2017-06-09T18:14:19.733Z,69.20
2017-06-09T18:16:47.186Z,67.50
2017-06-09T18:19:14.639Z,67.00
2017-06-09T18:21:42.094Z,67.20
2017-06-09T18:24:09.552Z,67.10
2017-06-09T18:26:36.998Z,68.10
2017-06-09T18:29:04.457Z,69.30
2017-06-09T18:31:31.925Z,67.60
2017-06-09T18:33:59.379Z,66.60
2017-06-09T18:36:26.842Z,66.40
2017-06-09T18:38:54.302Z,66.00
2017-06-09T18:41:22.567Z,67.90
2017-06-09T18:43:50.023Z,67.70
2017-06-09T18:46:17.585Z,69.30
2017-06-09T18:48:45.038Z,70.70
2017-06-09T18:51:12.599Z,71.80
2017-06-09T18:53:40.058Z,73.10
2017-06-09T18:56:07.612Z,73.60
2017-06-09T18:58:35.071Z,74.50
2017-06-09T19:01:02.526Z,74.80
2017-06-09T19:03:29.983Z,75.50
2017-06-09T19:05:57.530Z,75.10
2017-06-09T19:08:24.994Z,74.60
2017-06-09T19:10:52.451Z,76.30
2017-06-09T19:13:19.918Z,75.80
2017-06-09T19:15:48.155Z,80.40
2017-06-09T19:18:15.616Z,80.30
2017-06-09T19:20:43.094Z,81.90
2017-06-09T19:23:10.552Z,84.00
2017-06-09T19:25:38.015Z,85.10
2017-06-09T19:28:06.244Z,87.90
2017-06-09T19:30:33.744Z,87.90
2017-06-09T19:33:01.301Z,87.90
2017-06-09T19:35:28.850Z,88.90
2017-06-09T19:37:56.308Z,90.50
2017-06-09T19:40:23.762Z,90.50
2017-06-09T19:42:51.227Z,91.20
2017-06-09T19:45:18.691Z,91.70
2017-06-09T19:47:46.918Z,93.20
2017-06-09T19:50:14.398Z,92.80
2017-06-09T19:52:41.975Z,93.50
2017-06-09T19:55:09.439Z,93.00
2017-06-09T19:57:37.663Z,93.50
2017-06-09T20:00:05.122Z,93.70
2017-06-09T20:02:32.592Z,93.70
2017-06-09T20:05:00.070Z,94.70
2017-06-09T20:07:27.530Z,95.10
2017-06-09T20:09:55.087Z,95.10
2017-06-09T20:12:22.556Z,95.30
2017-06-09T20:14:50.014Z,95.80
2017-06-09T20:17:18.240Z,96.00
2017-06-09T20:19:45.696Z,95.90
2017-06-09T20:22:13.163Z,95.80
2017-06-09T20:24:40.624Z,96.10
2017-06-09T20:27:08.088Z,96.20
2017-06-09T20:29:35.542Z,96.20
2017-06-09T20:32:03.026Z,95.80
2017-06-09T20:34:30.482Z,95.80
2017-06-09T20:36:58.744Z,95.60
2017-06-09T20:39:26.203Z,95.60
2017-06-09T20:41:53.755Z,95.50
2017-06-09T20:44:21.221Z,95.20
2017-06-09T20:46:48.679Z,95.20
2017-06-09T20:49:16.130Z,95.00
2017-06-09T20:51:43.692Z,95.20
2017-06-09T20:54:11.159Z,94.80
2017-06-09T20:56:39.417Z,95.20
2017-06-09T20:59:06.875Z,95.20
2017-06-09T21:01:34.330Z,95.30
2017-06-09T21:04:01.886Z,95.40
2017-06-09T21:06:29.346Z,95.50
2017-06-09T21:08:56.859Z,95.60
2017-06-09T21:11:24.369Z,95.80
2017-06-09T21:13:52.609Z,95.70
2017-06-09T21:16:20.106Z,95.70
2017-06-09T21:18:47.551Z,95.90
2017-06-09T21:21:15.011Z,96.00
2017-06-09T21:23:42.468Z,96.30
2017-06-09T21:26:09.930Z,96.40
2017-06-09T21:28:38.159Z,96.90
2017-06-09T21:31:05.624Z,96.50
2017-06-09T21:33:33.111Z,96.50
2017-06-09T21:36:00.572Z,97.30
2017-06-09T21:38:28.125Z,97.80
2017-06-09T21:40:55.680Z,98.00
2017-06-09T21:43:23.134Z,97.80
2017-06-09T21:45:50.635Z,97.60
2017-06-09T21:48:18.157Z,98.00
2017-06-09T21:50:45.712Z,98.40
2017-06-09T21:53:13.273Z,98.50
2017-06-09T21:55:40.830Z,98.60
2017-06-09T21:58:08.295Z,98.60
2017-06-09T22:02:40.875Z,98.10
2017-06-09T22:05:08.435Z,98.50
2017-06-09T22:07:35.957Z,98.40
2017-06-09T22:10:03.416Z,98.60
2017-06-09T22:12:30.890Z,98.50
2017-06-09T22:14:58.357Z,98.40
2017-06-09T22:17:25.831Z,98.30
2017-06-09T22:19:54.055Z,98.40
2017-06-09T22:22:21.526Z,98.40
2017-06-09T22:24:49.007Z,98.40
2017-06-09T22:27:16.475Z,98.30
2017-06-09T22:29:44.740Z,98.40
2017-06-09T22:32:12.200Z,98.30
2017-06-09T22:34:39.661Z,98.40
2017-06-09T22:37:07.927Z,98.60
2017-06-09T22:39:35.395Z,98.60
2017-06-09T22:42:03.622Z,98.70
2017-06-09T22:44:31.078Z,98.70
2017-06-09T22:46:58.546Z,98.70
2017-06-09T22:49:26.019Z,99.10
2017-06-09T22:51:53.483Z,98.90
2017-06-09T22:54:20.953Z,98.80
2017-06-09T22:56:49.179Z,98.40
2017-06-09T22:59:16.676Z,98.40
2017-06-09T23:01:44.137Z,98.10
2017-06-09T23:04:12.358Z,98.80
2017-06-09T23:06:39.858Z,98.60
2017-06-09T23:09:07.417Z,98.70
2017-06-09T23:11:34.975Z,98.60
2017-06-09T23:14:02.446Z,98.50
2017-06-09T23:16:30.713Z,98.10
2017-06-09T23:18:58.179Z,98.10
2017-06-09T23:21:32.107Z,98.40
2017-06-09T23:23:59.562Z,98.40
2017-06-09T23:26:27.026Z,98.50
2017-06-09T23:28:54.498Z,98.40
2017-06-09T23:31:27.566Z,98.40
2017-06-09T23:33:55.024Z,98.30
2017-06-09T23:36:22.486Z,98.40
2017-06-09T23:38:49.958Z,98.40
2017-06-09T23:41:17.458Z,98.30
2017-06-09T23:43:45.020Z,98.30
2017-06-09T23:46:12.480Z,98.30
2017-06-09T23:48:39.930Z,98.40
2017-06-09T23:51:07.390Z,98.40
2017-06-09T23:53:34.943Z,98.40
2017-06-09T23:56:02.415Z,98.30
2017-06-09T23:58:30.639Z,98.20
